Terminal Aerodrome Forecast
Issued by NWS

Home | Current Version | Previous Version | Text Only | Print | Product List | Glossary On
Versions: 1 2 3 4 5 6 7 8 9 10 11 12 13 14 15 16 17 18 19 20
000
FTUS44 KLZK 221700
TAFLLQ
TAF
KLLQ 221739Z 2218/2318 17008G15KT P6SM VCSH BKN007 OVC015
      WS020/22040KT
      TEMPO 2218/2220 5SM -SHRA BR BKN007 OVC010
     FM222000 17008G16KT P6SM VCSH SCT005 OVC050 WS020/22040KT
      TEMPO 2220/2222 6SM -SHRA BR OVC025
     FM222200 20008KT P6SM VCTS SCT015 OVC040CB
      TEMPO 2222/2302 5SM -TSRA BKN025CB OVC030
     FM230200 22006KT P6SM BKN025 BKN250
     FM230600 29006KT P6SM SCT025 BKN250=

USA.gov is the U.S. government's official web portal to all federal, state and local government web resources and services.